Terminal Aerodrome Forecast
Issued by NWS

Home | Current Version | Previous Version | Text Only | Print | Product List | Glossary On
Versions: 1 2 3 4 5 6 7 8 9 10 11 12 13 14
000
FTUS46 KOTX 290520
TAFPUW
TAF
KPUW 290520Z 2906/3006 07004KT P6SM VCSH BKN050 OVC080
     FM290800 16005KT P6SM -RA BKN030 OVC050
     FM291900 24012G20KT P6SM -SHRA BKN050 OVC080
     FM300100 25008KT P6SM OVC080=

USA.gov is the U.S. government's official web portal to all federal, state and local government web resources and services.